sensor_id;sensor_type;location;lat;lon;timestamp;pressure;altitude;pressure_sealevel;temperature;humidity
17855;BME280;9053;53.358;6.382;2023-01-28T00:01:13;103013.50;;;4.76;91.76
17855;BME280;9053;53.358;6.382;2023-01-28T00:03:43;103015.38;;;4.77;91.88
17855;BME280;9053;53.358;6.382;2023-01-28T00:06:14;103014.47;;;4.76;91.90
17855;BME280;9053;53.358;6.382;2023-01-28T00:08:47;103013.50;;;4.76;91.89
17855;BME280;9053;53.358;6.382;2023-01-28T00:11:17;103015.22;;;4.75;91.90
17855;BME280;9053;53.358;6.382;2023-01-28T00:13:50;103013.41;;;4.74;91.95
17855;BME280;9053;53.358;6.382;2023-01-28T00:16:20;103004.66;;;4.74;91.88
17855;BME280;9053;53.358;6.382;2023-01-28T00:18:53;103000.34;;;4.74;91.94
17855;BME280;9053;53.358;6.382;2023-01-28T00:21:23;102996.06;;;4.75;91.89
17855;BME280;9053;53.358;6.382;2023-01-28T00:23:56;103004.94;;;4.77;91.99
17855;BME280;9053;53.358;6.382;2023-01-28T00:26:26;102998.03;;;4.77;92.04
17855;BME280;9053;53.358;6.382;2023-01-28T00:28:56;102995.41;;;4.77;91.89
17855;BME280;9053;53.358;6.382;2023-01-28T00:31:26;102989.41;;;4.78;91.83
17855;BME280;9053;53.358;6.382;2023-01-28T00:33:56;102988.66;;;4.80;92.03
17855;BME280;9053;53.358;6.382;2023-01-28T00:36:26;102992.19;;;4.80;92.01
17855;BME280;9053;53.358;6.382;2023-01-28T00:38:59;102991.25;;;4.80;91.90
17855;BME280;9053;53.358;6.382;2023-01-28T00:41:29;102992.44;;;4.83;92.07
17855;BME280;9053;53.358;6.382;2023-01-28T00:43:58;102978.50;;;4.83;92.15
17855;BME280;9053;53.358;6.382;2023-01-28T00:46:28;102984.63;;;4.83;92.30
17855;BME280;9053;53.358;6.382;2023-01-28T00:48:58;102987.13;;;4.82;92.22
17855;BME280;9053;53.358;6.382;2023-01-28T00:51:28;102982.22;;;4.76;92.23
17855;BME280;9053;53.358;6.382;2023-01-28T00:54:00;102983.81;;;4.74;92.32
17855;BME280;9053;53.358;6.382;2023-01-28T00:56:30;102986.25;;;4.72;92.27
17855;BME280;9053;53.358;6.382;2023-01-28T00:59:02;102984.44;;;4.71;92.33
17855;BME280;9053;53.358;6.382;2023-01-28T01:01:33;102988.09;;;4.73;92.24
17855;BME280;9053;53.358;6.382;2023-01-28T01:04:03;102989.94;;;4.74;92.22
17855;BME280;9053;53.358;6.382;2023-01-28T01:06:34;102991.75;;;4.75;92.34
17855;BME280;9053;53.358;6.382;2023-01-28T01:09:10;102993.59;;;4.76;92.41
17855;BME280;9053;53.358;6.382;2023-01-28T01:11:40;102995.41;;;4.77;92.30
17855;BME280;9053;53.358;6.382;2023-01-28T01:14:10;102992.81;;;4.77;92.24
17855;BME280;9053;53.358;6.382;2023-01-28T01:16:40;102993.88;;;4.80;92.37
17855;BME280;9053;53.358;6.382;2023-01-28T01:19:09;102995.69;;;4.81;92.47
17855;BME280;9053;53.358;6.382;2023-01-28T01:21:39;102994.16;;;4.83;92.37
17855;BME280;9053;53.358;6.382;2023-01-28T01:24:12;102999.34;;;4.83;92.38
17855;BME280;9053;53.358;6.382;2023-01-28T01:26:42;102999.34;;;4.83;92.35
17855;BME280;9053;53.358;6.382;2023-01-28T01:29:11;102998.56;;;4.84;92.43
17855;BME280;9053;53.358;6.382;2023-01-28T01:31:41;103002.13;;;4.84;92.29
17855;BME280;9053;53.358;6.382;2023-01-28T01:34:11;103005.63;;;4.85;92.40
17855;BME280;9053;53.358;6.382;2023-01-28T01:36:41;103004.84;;;4.86;92.37
17855;BME280;9053;53.358;6.382;2023-01-28T01:39:15;103004.09;;;4.87;92.29
17855;BME280;9053;53.358;6.382;2023-01-28T01:41:44;103004.09;;;4.87;92.32
17855;BME280;9053;53.358;6.382;2023-01-28T01:47:15;103000.44;;;4.85;92.44
17855;BME280;9053;53.358;6.382;2023-01-28T01:49:46;103006.53;;;4.85;92.37
17855;BME280;9053;53.358;6.382;2023-01-28T01:52:18;103015.16;;;4.84;92.39
17855;BME280;9053;53.358;6.382;2023-01-28T01:54:55;103013.47;;;4.85;92.39
17855;BME280;9053;53.358;6.382;2023-01-28T01:57:29;103003.94;;;4.85;92.54
17855;BME280;9053;53.358;6.382;2023-01-28T02:00:02;102997.81;;;4.85;92.46
17855;BME280;9053;53.358;6.382;2023-01-28T02:02:38;103009.16;;;4.85;92.46
17855;BME280;9053;53.358;6.382;2023-01-28T02:05:10;103010.84;;;4.85;92.37
17855;BME280;9053;53.358;6.382;2023-01-28T02:07:42;103009.16;;;4.85;92.43
17855;BME280;9053;53.358;6.382;2023-01-28T02:10:16;103012.66;;;4.86;92.59
17855;BME280;9053;53.358;6.382;2023-01-28T02:12:49;103000.53;;;4.86;92.58
17855;BME280;9053;53.358;6.382;2023-01-28T02:15:23;102997.81;;;4.85;92.47
17855;BME280;9053;53.358;6.382;2023-01-28T02:17:55;102996.75;;;4.83;92.50
17855;BME280;9053;53.358;6.382;2023-01-28T02:20:35;102996.59;;;4.81;92.48
17855;BME280;9053;53.358;6.382;2023-01-28T02:23:36;102994.00;;;4.81;92.46
17855;BME280;9053;53.358;6.382;2023-01-28T02:26:34;102993.88;;;4.80;92.47
17855;BME280;9053;53.358;6.382;2023-01-28T02:29:14;102988.50;;;4.78;92.43
17855;BME280;9053;53.358;6.382;2023-01-28T02:31:51;102987.59;;;4.77;92.52
17855;BME280;9053;53.358;6.382;2023-01-28T02:34:29;102995.56;;;4.79;92.52
17855;BME280;9053;53.358;6.382;2023-01-28T02:37:08;102988.38;;;4.76;92.51
17855;BME280;9053;53.358;6.382;2023-01-28T02:39:44;102995.16;;;4.74;92.37
17855;BME280;9053;53.358;6.382;2023-01-28T02:42:18;102998.38;;;4.72;92.41
17855;BME280;9053;53.358;6.382;2023-01-28T02:44:52;102994.09;;;4.72;92.44
17855;BME280;9053;53.358;6.382;2023-01-28T02:47:22;102990.41;;;4.70;92.51
17855;BME280;9053;53.358;6.382;2023-01-28T02:50:07;102998.22;;;4.70;92.52
17855;BME280;9053;53.358;6.382;2023-01-28T02:52:48;102993.03;;;4.70;92.36
17855;BME280;9053;53.358;6.382;2023-01-28T02:55:38;102993.03;;;4.70;92.31
17855;BME280;9053;53.358;6.382;2023-01-28T02:58:15;102989.50;;;4.70;92.40
17855;BME280;9053;53.358;6.382;2023-01-28T03:00:55;102985.84;;;4.68;92.48
17855;BME280;9053;53.358;6.382;2023-01-28T03:03:35;102983.44;;;4.61;92.27
17855;BME280;9053;53.358;6.382;2023-01-28T03:06:07;102986.69;;;4.58;92.40
17855;BME280;9053;53.358;6.382;2023-01-28T03:08:44;102976.25;;;4.58;92.43
17855;BME280;9053;53.358;6.382;2023-01-28T03:11:28;102975.34;;;4.58;92.38
17855;BME280;9053;53.358;6.382;2023-01-28T03:14:12;102983.94;;;4.57;92.53
17855;BME280;9053;53.358;6.382;2023-01-28T03:16:59;102989.44;;;4.60;92.50
17855;BME280;9053;53.358;6.382;2023-01-28T03:19:42;102985.13;;;4.60;92.52
17855;BME280;9053;53.358;6.382;2023-01-28T03:22:27;102994.00;;;4.62;92.39
17855;BME280;9053;53.358;6.382;2023-01-28T03:25:10;102993.22;;;4.63;92.48
17855;BME280;9053;53.358;6.382;2023-01-28T03:27:59;102997.53;;;4.63;92.50
17855;BME280;9053;53.358;6.382;2023-01-28T03:30:46;102998.44;;;4.63;92.61
17855;BME280;9053;53.358;6.382;2023-01-28T03:33:33;102991.56;;;4.64;92.53
17855;BME280;9053;53.358;6.382;2023-01-28T03:36:16;103007.31;;;4.65;92.45
17855;BME280;9053;53.358;6.382;2023-01-28T03:38:58;103003.66;;;4.63;92.62
17855;BME280;9053;53.358;6.382;2023-01-28T03:41:28;103003.66;;;4.63;92.60
17855;BME280;9053;53.358;6.382;2023-01-28T03:43:58;102999.22;;;4.62;92.60
17855;BME280;9053;53.358;6.382;2023-01-28T03:46:40;102999.38;;;4.64;92.52
17855;BME280;9053;53.358;6.382;2023-01-28T03:49:13;103002.09;;;4.65;92.71
17855;BME280;9053;53.358;6.382;2023-01-28T03:51:43;102996.13;;;4.66;92.66
17855;BME280;9053;53.358;6.382;2023-01-28T03:54:13;102997.06;;;4.67;92.71
17855;BME280;9053;53.358;6.382;2023-01-28T03:56:43;102992.75;;;4.67;92.77
17855;BME280;9053;53.358;6.382;2023-01-28T03:59:14;102996.13;;;4.66;92.72
17855;BME280;9053;53.358;6.382;2023-01-28T04:01:44;102996.41;;;4.69;92.80
17855;BME280;9053;53.358;6.382;2023-01-28T04:04:19;102990.41;;;4.70;92.82
17855;BME280;9053;53.358;6.382;2023-01-28T04:06:51;102985.19;;;4.70;92.90
17855;BME280;9053;53.358;6.382;2023-01-28T04:09:22;102983.50;;;4.71;92.95
17855;BME280;9053;53.358;6.382;2023-01-28T04:11:51;102993.94;;;4.71;93.03
17855;BME280;9053;53.358;6.382;2023-01-28T04:14:21;102990.41;;;4.70;92.94
17855;BME280;9053;53.358;6.382;2023-01-28T04:16:51;102983.22;;;4.68;93.00
17855;BME280;9053;53.358;6.382;2023-01-28T04:19:24;102988.16;;;4.65;93.08
17855;BME280;9053;53.358;6.382;2023-01-28T04:21:54;102988.66;;;4.61;93.06
17855;BME280;9053;53.358;6.382;2023-01-28T04:24:24;102988.53;;;4.59;93.02
17855;BME280;9053;53.358;6.382;2023-01-28T04:26:54;102986.69;;;4.58;93.04
17855;BME280;9053;53.358;6.382;2023-01-28T04:29:24;102982.41;;;4.59;93.04
17855;BME280;9053;53.358;6.382;2023-01-28T04:31:54;102981.47;;;4.58;93.05
17855;BME280;9053;53.358;6.382;2023-01-28T04:34:26;102982.25;;;4.57;93.11
17855;BME280;9053;53.358;6.382;2023-01-28T04:36:56;102985.59;;;4.56;93.15
17855;BME280;9053;53.358;6.382;2023-01-28T04:39:26;102982.09;;;4.55;93.17
17855;BME280;9053;53.358;6.382;2023-01-28T04:41:55;102969.84;;;4.54;93.13
17855;BME280;9053;53.358;6.382;2023-01-28T04:44:25;102982.09;;;4.55;93.30
17855;BME280;9053;53.358;6.382;2023-01-28T04:46:55;102990.69;;;4.54;93.20
17855;BME280;9053;53.358;6.382;2023-01-28T04:49:27;102988.22;;;4.56;93.25
17855;BME280;9053;53.358;6.382;2023-01-28T04:51:58;102986.41;;;4.55;93.28
17855;BME280;9053;53.358;6.382;2023-01-28T04:54:28;102967.72;;;4.50;93.39
17855;BME280;9053;53.358;6.382;2023-01-28T04:56:57;102981.53;;;4.49;93.27
17855;BME280;9053;53.358;6.382;2023-01-28T04:59:27;102975.28;;;4.47;93.32
17855;BME280;9053;53.358;6.382;2023-01-28T05:01:57;102979.56;;;4.47;93.33
17855;BME280;9053;53.358;6.382;2023-01-28T05:04:29;102975.13;;;4.46;93.20
17855;BME280;9053;53.358;6.382;2023-01-28T05:06:59;102968.88;;;4.44;93.19
17855;BME280;9053;53.358;6.382;2023-01-28T05:09:29;102969.50;;;4.41;93.15
17855;BME280;9053;53.358;6.382;2023-01-28T05:11:59;102967.81;;;4.42;93.26
17855;BME280;9053;53.358;6.382;2023-01-28T05:14:28;102958.94;;;4.40;93.37
17855;BME280;9053;53.358;6.382;2023-01-28T05:16:58;102958.66;;;4.37;93.10
17855;BME280;9053;53.358;6.382;2023-01-28T05:19:31;102964.50;;;4.34;93.16
17855;BME280;9053;53.358;6.382;2023-01-28T05:22:01;102974.00;;;4.33;93.19
17855;BME280;9053;53.358;6.382;2023-01-28T05:24:30;102972.16;;;4.32;93.15
17855;BME280;9053;53.358;6.382;2023-01-28T05:27:00;102973.69;;;4.30;93.20
17855;BME280;9053;53.358;6.382;2023-01-28T05:29:30;102974.47;;;4.29;93.18
17855;BME280;9053;53.358;6.382;2023-01-28T05:32:00;102979.84;;;4.31;93.15
17855;BME280;9053;53.358;6.382;2023-01-28T05:34:32;102964.97;;;4.30;93.30
17855;BME280;9053;53.358;6.382;2023-01-28T05:37:02;102965.75;;;4.29;93.23
17855;BME280;9053;53.358;6.382;2023-01-28T05:39:32;102950.75;;;4.26;93.15
17855;BME280;9053;53.358;6.382;2023-01-28T05:42:02;102961.19;;;4.26;93.17
17855;BME280;9053;53.358;6.382;2023-01-28T05:44:31;102960.28;;;4.26;93.16
17855;BME280;9053;53.358;6.382;2023-01-28T05:47:02;102955.81;;;4.25;93.09
17855;BME280;9053;53.358;6.382;2023-01-28T05:49:34;102957.50;;;4.24;93.11
17855;BME280;9053;53.358;6.382;2023-01-28T05:52:04;102957.78;;;4.27;93.14
17855;BME280;9053;53.358;6.382;2023-01-28T05:54:34;102951.81;;;4.28;93.35
17855;BME280;9053;53.358;6.382;2023-01-28T05:57:03;102952.84;;;4.30;93.29
17855;BME280;9053;53.358;6.382;2023-01-28T05:59:33;102959.13;;;4.32;93.33
17855;BME280;9053;53.358;6.382;2023-01-28T06:02:03;102957.31;;;4.31;93.23
17855;BME280;9053;53.358;6.382;2023-01-28T06:04:35;102959.00;;;4.31;93.28
17855;BME280;9053;53.358;6.382;2023-01-28T06:07:05;102955.34;;;4.29;93.35
17855;BME280;9053;53.358;6.382;2023-01-28T06:09:35;102963.00;;;4.27;93.41
17855;BME280;9053;53.358;6.382;2023-01-28T06:12:05;102972.50;;;4.27;93.42
17855;BME280;9053;53.358;6.382;2023-01-28T06:14:35;102971.44;;;4.25;93.43
17855;BME280;9053;53.358;6.382;2023-01-28T06:17:05;102967.94;;;4.24;93.47
17855;BME280;9053;53.358;6.382;2023-01-28T06:19:37;102978.34;;;4.24;93.52
17855;BME280;9053;53.358;6.382;2023-01-28T06:22:07;102978.34;;;4.24;93.61
17855;BME280;9053;53.358;6.382;2023-01-28T06:24:37;102966.06;;;4.23;93.54
17855;BME280;9053;53.358;6.382;2023-01-28T06:27:07;102974.69;;;4.22;93.67
17855;BME280;9053;53.358;6.382;2023-01-28T06:29:36;102982.97;;;4.18;93.56
17855;BME280;9053;53.358;6.382;2023-01-28T06:32:06;102979.16;;;4.15;93.59
17855;BME280;9053;53.358;6.382;2023-01-28T06:34:39;102977.81;;;4.09;93.46
17855;BME280;9053;53.358;6.382;2023-01-28T06:37:11;102982.13;;;4.09;93.49
17855;BME280;9053;53.358;6.382;2023-01-28T06:39:41;102985.19;;;4.05;93.56
17855;BME280;9053;53.358;6.382;2023-01-28T06:42:11;102981.53;;;4.03;93.49
17855;BME280;9053;53.358;6.382;2023-01-28T06:44:41;102980.34;;;3.99;93.67
17855;BME280;9053;53.358;6.382;2023-01-28T06:47:11;102988.00;;;3.98;93.52
17855;BME280;9053;53.358;6.382;2023-01-28T06:49:43;102997.22;;;3.94;93.61
17855;BME280;9053;53.358;6.382;2023-01-28T06:52:13;102993.53;;;3.92;93.68
17855;BME280;9053;53.358;6.382;2023-01-28T06:54:43;102992.47;;;3.90;93.58
17855;BME280;9053;53.358;6.382;2023-01-28T06:57:13;102986.19;;;3.88;93.58
17855;BME280;9053;53.358;6.382;2023-01-28T06:59:42;102993.88;;;3.86;93.64
17855;BME280;9053;53.358;6.382;2023-01-28T07:02:12;102991.13;;;3.85;93.62
17855;BME280;9053;53.358;6.382;2023-01-28T07:04:45;102975.38;;;3.83;93.61
17855;BME280;9053;53.358;6.382;2023-01-28T07:07:14;102981.22;;;3.81;93.59
17855;BME280;9053;53.358;6.382;2023-01-28T07:09:44;102982.75;;;3.79;93.75
17855;BME280;9053;53.358;6.382;2023-01-28T07:12:14;102984.28;;;3.77;93.55
17855;BME280;9053;53.358;6.382;2023-01-28T07:14:44;102984.91;;;3.74;93.66
17855;BME280;9053;53.358;6.382;2023-01-28T07:17:14;103000.22;;;3.71;93.71
17855;BME280;9053;53.358;6.382;2023-01-28T07:19:46;102993.03;;;3.68;93.70
17855;BME280;9053;53.358;6.382;2023-01-28T07:22:16;102985.84;;;3.66;93.73
17855;BME280;9053;53.358;6.382;2023-01-28T07:24:46;102987.38;;;3.64;93.77
17855;BME280;9053;53.358;6.382;2023-01-28T07:27:15;102997.63;;;3.62;93.75
17855;BME280;9053;53.358;6.382;2023-01-28T07:29:45;103004.53;;;3.62;93.90
17855;BME280;9053;53.358;6.382;2023-01-28T07:32:15;102996.72;;;3.62;93.95
17855;BME280;9053;53.358;6.382;2023-01-28T07:34:47;102998.59;;;3.63;93.86
17855;BME280;9053;53.358;6.382;2023-01-28T07:37:17;102996.72;;;3.62;93.78
17855;BME280;9053;53.358;6.382;2023-01-28T07:39:47;102999.34;;;3.62;93.81
17855;BME280;9053;53.358;6.382;2023-01-28T07:42:17;103007.91;;;3.61;94.05
17855;BME280;9053;53.358;6.382;2023-01-28T07:44:47;103014.03;;;3.61;94.06
17855;BME280;9053;53.358;6.382;2023-01-28T07:47:18;103019.06;;;3.60;93.92
17855;BME280;9053;53.358;6.382;2023-01-28T07:49:50;103020.94;;;3.61;93.95
17855;BME280;9053;53.358;6.382;2023-01-28T07:52:20;103026.13;;;3.61;94.10
17855;BME280;9053;53.358;6.382;2023-01-28T07:54:50;103029.81;;;3.63;94.13
17855;BME280;9053;53.358;6.382;2023-01-28T07:57:20;103022.13;;;3.64;94.37
17855;BME280;9053;53.358;6.382;2023-01-28T07:59:51;103033.44;;;3.65;94.51
17855;BME280;9053;53.358;6.382;2023-01-28T08:02:21;103030.72;;;3.63;94.51
17855;BME280;9053;53.358;6.382;2023-01-28T08:04:53;103040.22;;;3.63;94.39
17855;BME280;9053;53.358;6.382;2023-01-28T08:07:25;103040.22;;;3.63;94.48
17855;BME280;9053;53.358;6.382;2023-01-28T08:09:56;103034.06;;;3.62;94.49
17855;BME280;9053;53.358;6.382;2023-01-28T08:12:25;103041.88;;;3.62;94.71
17855;BME280;9053;53.358;6.382;2023-01-28T08:14:55;103050.63;;;3.63;94.76
17855;BME280;9053;53.358;6.382;2023-01-28T08:17:26;103053.66;;;3.67;94.69
17855;BME280;9053;53.358;6.382;2023-01-28T08:19:59;103058.56;;;3.73;94.88
17855;BME280;9053;53.358;6.382;2023-01-28T08:22:28;103059.59;;;3.75;95.13
17855;BME280;9053;53.358;6.382;2023-01-28T08:24:58;103048.44;;;3.76;95.10
17855;BME280;9053;53.358;6.382;2023-01-28T08:27:28;103064.97;;;3.77;95.25
17855;BME280;9053;53.358;6.382;2023-01-28T08:29:58;103066.03;;;3.79;95.35
17855;BME280;9053;53.358;6.382;2023-01-28T08:32:28;103074.59;;;3.78;95.24
17855;BME280;9053;53.358;6.382;2023-01-28T08:35:00;103069.56;;;3.79;95.43
17855;BME280;9053;53.358;6.382;2023-01-28T08:37:30;103070.34;;;3.78;95.28
17855;BME280;9053;53.358;6.382;2023-01-28T08:40:00;103069.38;;;3.78;95.43
17855;BME280;9053;53.358;6.382;2023-01-28T08:42:30;103063.72;;;3.82;95.60
17855;BME280;9053;53.358;6.382;2023-01-28T08:45:00;103065.06;;;3.87;95.62
17855;BME280;9053;53.358;6.382;2023-01-28T08:47:30;103067.50;;;3.94;95.87
17855;BME280;9053;53.358;6.382;2023-01-28T08:50:02;103080.19;;;4.00;95.80
17855;BME280;9053;53.358;6.382;2023-01-28T08:52:33;103064.09;;;4.04;96.07
17855;BME280;9053;53.358;6.382;2023-01-28T08:55:03;103067.56;;;4.13;95.97
17855;BME280;9053;53.358;6.382;2023-01-28T08:57:33;103066.47;;;4.20;96.08
17855;BME280;9053;53.358;6.382;2023-01-28T09:00:04;103067.19;;;4.27;96.34
17855;BME280;9053;53.358;6.382;2023-01-28T09:02:36;103073.56;;;4.40;96.54
17855;BME280;9053;53.358;6.382;2023-01-28T09:05:09;103073.50;;;4.48;96.69
17855;BME280;9053;53.358;6.382;2023-01-28T09:07:39;103076.34;;;4.60;96.46
17855;BME280;9053;53.358;6.382;2023-01-28T09:10:10;103074.63;;;4.69;96.69
17855;BME280;9053;53.358;6.382;2023-01-28T09:12:41;103076.88;;;4.75;96.74
17855;BME280;9053;53.358;6.382;2023-01-28T09:15:11;103080.03;;;4.81;96.52
17855;BME280;9053;53.358;6.382;2023-01-28T09:17:41;103073.56;;;4.86;96.62
17855;BME280;9053;53.358;6.382;2023-01-28T09:20:13;103075.06;;;4.93;96.59
17855;BME280;9053;53.358;6.382;2023-01-28T09:22:43;103075.47;;;4.97;96.57
17855;BME280;9053;53.358;6.382;2023-01-28T09:25:13;103065.31;;;5.01;96.37
17855;BME280;9053;53.358;6.382;2023-01-28T09:27:43;103078.34;;;5.01;96.34
17855;BME280;9053;53.358;6.382;2023-01-28T09:30:13;103069.19;;;4.95;96.16
17855;BME280;9053;53.358;6.382;2023-01-28T09:32:44;103075.97;;;4.93;95.89
17855;BME280;9053;53.358;6.382;2023-01-28T09:35:16;103079.06;;;4.89;95.85
17855;BME280;9053;53.358;6.382;2023-01-28T09:37:47;103079.72;;;4.87;95.64
17855;BME280;9053;53.358;6.382;2023-01-28T09:40:20;103074.19;;;4.84;95.49
17855;BME280;9053;53.358;6.382;2023-01-28T09:43:04;103074.69;;;4.80;95.26
17855;BME280;9053;53.358;6.382;2023-01-28T09:45:39;103074.53;;;4.78;95.07
17855;BME280;9053;53.358;6.382;2023-01-28T09:48:14;103079.63;;;4.76;95.04
17855;BME280;9053;53.358;6.382;2023-01-28T09:50:51;103082.25;;;4.76;94.96
17855;BME280;9053;53.358;6.382;2023-01-28T09:53:24;103079.75;;;4.78;94.92
17855;BME280;9053;53.358;6.382;2023-01-28T09:56:00;103084.97;;;4.78;95.00
17855;BME280;9053;53.358;6.382;2023-01-28T09:58:30;103077.03;;;4.76;94.75
17855;BME280;9053;53.358;6.382;2023-01-28T10:01:11;103066.44;;;4.75;94.77
17855;BME280;9053;53.358;6.382;2023-01-28T10:03:50;103048.97;;;4.74;94.71
17855;BME280;9053;53.358;6.382;2023-01-28T10:06:34;103047.56;;;4.77;94.66
17855;BME280;9053;53.358;6.382;2023-01-28T10:09:26;103038.19;;;4.80;94.66
17855;BME280;9053;53.358;6.382;2023-01-28T10:12:15;103033.25;;;4.83;94.60
17855;BME280;9053;53.358;6.382;2023-01-28T10:15:07;103016.97;;;4.85;94.59
17855;BME280;9053;53.358;6.382;2023-01-28T10:17:41;103010.06;;;4.86;94.68
17855;BME280;9053;53.358;6.382;2023-01-28T10:20:19;103007.47;;;4.86;94.50
17855;BME280;9053;53.358;6.382;2023-01-28T10:22:59;103008.53;;;4.88;94.58
17855;BME280;9053;53.358;6.382;2023-01-28T10:25:33;102999.00;;;4.88;94.73
17855;BME280;9053;53.358;6.382;2023-01-28T10:28:12;102997.72;;;4.93;94.63
17855;BME280;9053;53.358;6.382;2023-01-28T10:30:45;102992.66;;;4.95;94.58
17855;BME280;9053;53.358;6.382;2023-01-28T10:33:19;102991.88;;;4.96;94.55
17855;BME280;9053;53.358;6.382;2023-01-28T10:35:50;102976.53;;;4.99;94.46
17855;BME280;9053;53.358;6.382;2023-01-28T10:38:24;102982.13;;;5.04;94.55
17855;BME280;9053;53.358;6.382;2023-01-28T10:40:58;102991.00;;;5.06;94.64
17855;BME280;9053;53.358;6.382;2023-01-28T10:43:31;102980.22;;;5.11;94.66
17855;BME280;9053;53.358;6.382;2023-01-28T10:46:04;102982.59;;;5.18;94.69
17855;BME280;9053;53.358;6.382;2023-01-28T10:48:39;102977.66;;;5.21;94.73
17855;BME280;9053;53.358;6.382;2023-01-28T10:51:12;102983.81;;;5.22;94.59
17855;BME280;9053;53.358;6.382;2023-01-28T10:53:45;102984.06;;;5.25;94.83
17855;BME280;9053;53.358;6.382;2023-01-28T10:56:16;102991.41;;;5.29;94.78
17855;BME280;9053;53.358;6.382;2023-01-28T10:58:57;102996.09;;;5.33;94.76
17855;BME280;9053;53.358;6.382;2023-01-28T11:01:41;103002.53;;;5.37;94.80
17855;BME280;9053;53.358;6.382;2023-01-28T11:04:18;103007.75;;;5.37;94.64
17855;BME280;9053;53.358;6.382;2023-01-28T11:06:52;103011.38;;;5.39;94.74
17855;BME280;9053;53.358;6.382;2023-01-28T11:09:27;103018.47;;;5.40;94.58
17855;BME280;9053;53.358;6.382;2023-01-28T11:12:10;103010.63;;;5.40;94.71
17855;BME280;9053;53.358;6.382;2023-01-28T11:14:48;103019.38;;;5.40;94.57
17855;BME280;9053;53.358;6.382;2023-01-28T11:17:20;103007.09;;;5.39;94.60
17855;BME280;9053;53.358;6.382;2023-01-28T11:19:52;103010.91;;;5.43;94.67
17855;BME280;9053;53.358;6.382;2023-01-28T11:22:28;103003.22;;;5.45;94.50
17855;BME280;9053;53.358;6.382;2023-01-28T11:25:06;102993.16;;;5.49;94.45
17855;BME280;9053;53.358;6.382;2023-01-28T11:27:46;102989.78;;;5.50;94.57
17855;BME280;9053;53.358;6.382;2023-01-28T11:30:21;102994.38;;;5.53;94.42
17855;BME280;9053;53.358;6.382;2023-01-28T11:33:14;102994.63;;;5.56;94.42
17855;BME280;9053;53.358;6.382;2023-01-28T11:35:52;102979.13;;;5.57;94.52
17855;BME280;9053;53.358;6.382;2023-01-28T11:38:24;102969.06;;;5.62;94.54
17855;BME280;9053;53.358;6.382;2023-01-28T11:40:57;102970.25;;;5.66;94.54
17855;BME280;9053;53.358;6.382;2023-01-28T11:43:29;102967.13;;;5.70;94.57
17855;BME280;9053;53.358;6.382;2023-01-28T11:46:10;102964.00;;;5.74;94.60
17855;BME280;9053;53.358;6.382;2023-01-28T11:48:51;102962.44;;;5.76;94.69
17855;BME280;9053;53.358;6.382;2023-01-28T11:51:35;102944.94;;;5.75;94.61
17855;BME280;9053;53.358;6.382;2023-01-28T11:54:18;102959.19;;;5.78;94.51
17855;BME280;9053;53.358;6.382;2023-01-28T11:57:11;102947.94;;;5.79;94.56
17855;BME280;9053;53.358;6.382;2023-01-28T11:59:56;102945.31;;;5.79;94.47
17855;BME280;9053;53.358;6.382;2023-01-28T12:02:38;102941.81;;;5.79;94.40
17855;BME280;9053;53.358;6.382;2023-01-28T12:05:21;102939.19;;;5.79;94.41
17855;BME280;9053;53.358;6.382;2023-01-28T12:08:03;102942.84;;;5.81;94.42
17855;BME280;9053;53.358;6.382;2023-01-28T12:10:42;102938.03;;;5.85;94.37
17855;BME280;9053;53.358;6.382;2023-01-28T12:13:38;102932.41;;;5.91;94.42
17855;BME280;9053;53.358;6.382;2023-01-28T12:16:40;102922.41;;;5.96;94.45
17855;BME280;9053;53.358;6.382;2023-01-28T12:19:24;102905.28;;;5.99;94.40
17855;BME280;9053;53.358;6.382;2023-01-28T12:22:22;102917.84;;;6.03;94.44
17855;BME280;9053;53.358;6.382;2023-01-28T12:25:09;102922.66;;;6.09;94.47
17855;BME280;9053;53.358;6.382;2023-01-28T12:27:50;102921.25;;;6.13;94.55
17855;BME280;9053;53.358;6.382;2023-01-28T12:30:33;102932.72;;;6.15;94.42
17855;BME280;9053;53.358;6.382;2023-01-28T12:33:34;102929.59;;;6.19;94.51
17855;BME280;9053;53.358;6.382;2023-01-28T12:36:19;102936.00;;;6.22;94.53
17855;BME280;9053;53.358;6.382;2023-01-28T12:39:01;102943.31;;;6.26;94.43
17855;BME280;9053;53.358;6.382;2023-01-28T12:41:38;102942.00;;;6.32;94.42
17855;BME280;9053;53.358;6.382;2023-01-28T12:44:11;102935.34;;;6.35;94.46
17855;BME280;9053;53.358;6.382;2023-01-28T12:46:49;102943.19;;;6.35;94.47
17855;BME280;9053;53.358;6.382;2023-01-28T12:49:26;102934.41;;;6.35;94.41
17855;BME280;9053;53.358;6.382;2023-01-28T12:52:01;102937.16;;;6.36;94.24
17855;BME280;9053;53.358;6.382;2023-01-28T12:54:37;102933.88;;;6.39;94.31
17855;BME280;9053;53.358;6.382;2023-01-28T12:57:25;102927.09;;;6.41;94.28
17855;BME280;9053;53.358;6.382;2023-01-28T13:00:04;102918.44;;;6.42;94.14
17855;BME280;9053;53.358;6.382;2023-01-28T13:02:40;102914.41;;;6.45;94.16
17855;BME280;9053;53.358;6.382;2023-01-28T13:05:14;102903.31;;;6.48;94.20
17855;BME280;9053;53.358;6.382;2023-01-28T13:07:48;102900.78;;;6.49;94.23
17855;BME280;9053;53.358;6.382;2023-01-28T13:10:24;102895.56;;;6.49;94.13
17855;BME280;9053;53.358;6.382;2023-01-28T13:12:56;102900.13;;;6.52;94.28
17855;BME280;9053;53.358;6.382;2023-01-28T13:15:26;102919.47;;;6.54;94.17
17855;BME280;9053;53.358;6.382;2023-01-28T13:18:00;102905.88;;;6.58;94.19
17855;BME280;9053;53.358;6.382;2023-01-28T13:20:46;102905.22;;;6.61;94.21
17855;BME280;9053;53.358;6.382;2023-01-28T13:23:23;102897.25;;;6.59;94.19
17855;BME280;9053;53.358;6.382;2023-01-28T13:25:54;102896.34;;;6.59;94.13
17855;BME280;9053;53.358;6.382;2023-01-28T13:28:26;102895.28;;;6.57;94.09
17855;BME280;9053;53.358;6.382;2023-01-28T13:31:02;102895.44;;;6.58;94.13
17855;BME280;9053;53.358;6.382;2023-01-28T13:33:37;102889.28;;;6.58;94.12
17855;BME280;9053;53.358;6.382;2023-01-28T13:36:20;102895.53;;;6.60;94.20
17855;BME280;9053;53.358;6.382;2023-01-28T13:39:03;102895.81;;;6.63;94.22
17855;BME280;9053;53.358;6.382;2023-01-28T13:41:38;102901.16;;;6.64;94.13
17855;BME280;9053;53.358;6.382;2023-01-28T13:44:19;102891.88;;;6.68;94.24
17855;BME280;9053;53.358;6.382;2023-01-28T13:46:50;102883.22;;;6.69;94.24
17855;BME280;9053;53.358;6.382;2023-01-28T13:49:27;102878.13;;;6.70;94.33